This is the latest recevied weather packets stored in our database for station/object N0THY. If no packets are shown the sender has not sent any weather packets the latest 10 day(s).
| Time | Temp. | Humidity | Pressure | Rain* | Wind** | Luminosity | Snow |
|---|---|---|---|---|---|---|---|
| 1777436065 | 6.11° C | 65% | 1019.7 hPa | 0.25 mm | - | - | - |
| 1777435162 | 6.67° C | 63% | 1019.8 hPa | 0.25 mm | - | - | - |
| 1777434259 | 7.22° C | 62% | 1019.6 hPa | 0.25 mm | - | - | - |
| 1777433356 | 7.22° C | 60% | 1019.4 hPa | 0.25 mm | - | - | - |
| 1777432453 | 7.78° C | 59% | 1019.2 hPa | 0.25 mm | - | - | - |
| 1777431550 | 7.78° C | 57% | 1019.1 hPa | 0.25 mm | - | - | - |
| 1777429744 | 9.44° C | 52% | 1018.7 hPa | 0.25 mm | - | - | - |
| 1777428842 | 10.56° C | 49% | 1018.4 hPa | 0.25 mm | - | - | - |
| 1777427939 | 11.11° C | 47% | 1018.2 hPa | 0.25 mm | - | - | - |
| 1777427036 | 11.67° C | 46% | 1018.1 hPa | 0.25 mm | - | - | - |
| 1777426133 | 12.78° C | 43% | 1017.9 hPa | 0.25 mm | - | - | - |
| 1777425230 | 13.33° C | 41% | 1017.9 hPa | 0.25 mm | - | - | - |
| 1777424327 | 14.44° C | 39% | 1017.7 hPa | 0.25 mm | - | - | - |
| 1777423424 | 14.44° C | 39% | 1017.7 hPa | 0.25 mm | - | - | - |
| 1777422521 | 14.44° C | 40% | 1017.5 hPa | 0.25 mm | - | - | - |
| 1777421618 | 13.89° C | 41% | 1017.5 hPa | 0.25 mm | - | - | - |
| 1777420715 | 12.78° C | 44% | 1017.6 hPa | 0.25 mm | - | - | - |
| 1777419812 | 12.78° C | 45% | 1017.7 hPa | 0.25 mm | - | - | - |
| 1777418909 | 13.33° C | 45% | 1017.6 hPa | 0.25 mm | - | - | - |
| 1777418006 | 12.78° C | 45% | 1017.7 hPa | 0.25 mm | - | - | - |
| 1777417103 | 14.44° C | 41% | 1017.6 hPa | 0.25 mm | - | - | - |
| 1777416201 | 15° C | 40% | 1017.5 hPa | 0.25 mm | - | - | - |
| 1777415297 | 16.11° C | 38% | 1017.5 hPa | 0.25 mm | - | - | - |
| 1777414394 | 15.56° C | 40% | 1017.5 hPa | 0.25 mm | - | - | - |
| 1777413491 | 13.89° C | 44% | 1017.9 hPa | 0.25 mm | - | - | - |
* Rain since midnight (hover to see other rain measurements)
** Current wind speed in m/s (hover to see current wind gust speed)